Time;durP1;ratioP1;P1;durP2;ratioP2;P2;SDS_P1;SDS_P2;PMS_P1;PMS_P2;Temp;Humidity;BMP_temperature;BMP_pressure;BME280_temperature;BME280_humidity;BME280_pressure;Samples;Min_cycle;Max_cycle;Signal;HPM_P1;HPM_P2
2022/01/31 00:00:22;;;;;;;0.30;0.30;;;;;;;23.32;10.40;98460.75;5096498;28;20028;-76
2022/01/31 00:02:48;;;;;;;0.22;0.22;;;;;;;23.35;10.36;98465.56;5096782;28;20027;-76
2022/01/31 00:05:13;;;;;;;0.30;0.30;;;;;;;23.36;10.50;98472.59;5096621;28;20031;-75
2022/01/31 00:07:39;;;;;;;0.20;0.20;;;;;;;23.30;10.19;98464.88;5096867;28;20039;-76
2022/01/31 00:10:08;;;;;;;0.20;0.20;;;;;;;23.34;10.20;98479.50;5096775;28;20103;-76
2022/01/31 00:12:43;;;;;;;0.13;0.13;;;;;;;23.38;10.47;98475.00;5096695;28;20371;-76
2022/01/31 00:15:08;;;;;;;0.20;0.20;;;;;;;23.34;10.27;98485.75;5096378;28;20505;-76
2022/01/31 00:17:34;;;;;;;0.20;0.20;;;;;;;23.36;10.28;98483.50;5095062;28;20111;-78
2022/01/31 00:19:59;;;;;;;0.30;0.30;;;;;;;23.34;10.42;98474.84;5096349;28;20042;-78
2022/01/31 00:22:24;;;;;;;0.20;0.20;;;;;;;23.35;10.38;98471.00;5096736;28;20028;-79
2022/01/31 00:24:50;;;;;;;0.30;0.30;;;;;;;23.37;10.25;98474.22;5096758;28;20020;-79
2022/01/31 00:27:15;;;;;;;0.22;0.22;;;;;;;23.36;10.42;98467.13;5096576;28;20425;-79
2022/01/31 00:29:41;;;;;;;0.20;0.20;;;;;;;23.33;10.41;98462.31;5096121;28;20093;-79
2022/01/31 00:32:06;;;;;;;0.20;0.20;;;;;;;23.34;10.42;98474.84;5096326;28;20035;-78
2022/01/31 00:34:32;;;;;;;0.20;0.20;;;;;;;23.32;10.40;98466.19;5096098;28;20028;-78
2022/01/31 00:36:58;;;;;;;0.20;0.20;;;;;;;23.35;10.31;98470.19;5096413;28;20024;-78
2022/01/31 00:39:23;;;;;;;0.25;0.25;;;;;;;23.32;10.63;98471.63;5096323;28;20055;-79
2022/01/31 00:41:49;;;;;;;0.20;0.20;;;;;;;23.37;10.33;98474.22;5096161;28;20028;-77
2022/01/31 00:44:22;;;;;;;0.20;0.20;;;;;;;23.36;10.34;98471.81;5094830;28;20028;-79
2022/01/31 00:46:52;;;;;;;0.30;0.30;;;;;;;23.32;10.38;98474.38;5096434;28;20025;-79
2022/01/31 00:49:35;;;;;;;0.20;0.20;;;;;;;23.34;10.54;98472.13;5095661;28;20386;-78
2022/01/31 00:52:01;;;;;;;0.20;0.20;;;;;;;23.34;10.55;98474.84;5078121;28;20111;-78
2022/01/31 00:54:26;;;;;;;0.20;0.20;;;;;;;23.34;10.47;98476.78;5074882;28;20032;-79
2022/01/31 00:56:51;;;;;;;0.20;0.20;;;;;;;23.34;10.63;98472.13;5076021;28;20470;-79
2022/01/31 00:59:17;;;;;;;0.30;0.30;;;;;;;23.37;10.44;98478.84;5075604;28;20029;-79
2022/01/31 01:01:42;;;;;;;0.20;0.20;;;;;;;23.35;10.69;98471.00;5075690;28;20020;-78
2022/01/31 01:04:08;;;;;;;0.30;0.30;;;;;;;23.36;10.51;98475.31;5075533;28;20189;-79
2022/01/31 01:06:33;;;;;;;0.20;0.20;;;;;;;23.39;10.33;98471.97;5075533;28;20028;-76
2022/01/31 01:08:59;;;;;;;0.10;0.10;;;;;;;23.37;10.63;98474.22;5075416;28;20098;-75
2022/01/31 01:11:24;;;;;;;0.20;0.20;;;;;;;23.36;10.70;98471.81;5075247;28;20024;-76
2022/01/31 01:13:49;;;;;;;0.30;0.30;;;;;;;23.31;10.76;98470.03;5074654;28;20035;-76
2022/01/31 01:16:15;;;;;;;0.20;0.20;;;;;;;23.34;10.43;98483.03;5074995;28;20025;-76
2022/01/31 01:18:40;;;;;;;0.20;0.20;;;;;;;23.34;10.49;98474.84;5074738;28;20086;-75
2022/01/31 01:21:06;;;;;;;0.13;0.13;;;;;;;23.34;10.55;98474.03;5075247;28;20016;-75
2022/01/31 01:23:31;;;;;;;0.20;0.20;;;;;;;23.34;10.56;98480.28;5074927;28;20359;-76
2022/01/31 01:25:56;;;;;;;0.20;0.20;;;;;;;23.34;10.43;98474.84;5074772;28;20070;-75
2022/01/31 01:28:26;;;;;;;0.20;0.20;;;;;;;23.33;10.68;98486.84;5074942;28;20027;-76
2022/01/31 01:30:55;;;;;;;0.20;0.20;;;;;;;23.32;10.63;98489.88;5075060;28;20025;-76
2022/01/31 01:33:22;;;;;;;0.20;0.20;;;;;;;23.32;10.43;98496.16;5075075;28;20082;-76
2022/01/31 01:35:50;;;;;;;0.20;0.20;;;;;;;23.33;10.63;98492.31;5074681;28;20497;-76
2022/01/31 01:38:17;;;;;;;0.20;0.20;;;;;;;23.34;10.50;98491.19;5073573;28;20031;-76
2022/01/31 01:40:43;;;;;;;0.20;0.20;;;;;;;23.33;10.43;98488.78;5074684;28;20074;-76
2022/01/31 01:43:09;;;;;;;0.20;0.20;;;;;;;23.33;10.45;98499.69;5074473;28;20035;-78
2022/01/31 01:45:34;;;;;;;0.30;0.30;;;;;;;23.29;10.44;98476.94;5075133;28;20020;-79
2022/01/31 01:48:00;;;;;;;0.20;0.20;;;;;;;23.38;10.53;98492.16;5073528;28;20029;-79
2022/01/31 01:50:25;;;;;;;0.20;0.20;;;;;;;23.32;10.56;98477.09;5078381;28;20028;-78
2022/01/31 01:52:53;;;;;;;0.20;0.20;;;;;;;23.39;10.18;98490.25;5094862;28;20028;-79
2022/01/31 01:55:19;;;;;;;0.20;0.20;;;;;;;23.35;10.43;98487.34;5094761;28;20028;-79
2022/01/31 01:57:44;;;;;;;0.20;0.20;;;;;;;23.31;10.10;98486.38;5094940;28;20032;-78
2022/01/31 02:00:16;;;;;;;0.20;0.20;;;;;;;23.24;10.58;98470.50;5092997;28;20489;-78
2022/01/31 02:02:45;;;;;;;0.20;0.20;;;;;;;23.33;10.54;98483.34;5093589;28;20040;-79
2022/01/31 02:05:10;;;;;;;0.20;0.20;;;;;;;23.36;10.55;98482.69;5094646;28;20044;-79
2022/01/31 02:07:36;;;;;;;0.28;0.28;;;;;;;23.34;10.50;98490.41;5094461;28;20093;-79
2022/01/31 02:10:04;;;;;;;0.30;0.30;;;;;;;23.34;10.16;98479.50;5093364;28;20024;-78
2022/01/31 02:12:44;;;;;;;0.20;0.20;;;;;;;23.41;10.57;98474.38;5095014;28;20028;-78
2022/01/31 02:15:10;;;;;;;0.30;0.30;;;;;;;23.34;10.38;98474.84;5094568;28;20046;-78
2022/01/31 02:17:36;;;;;;;0.20;0.20;;;;;;;23.34;10.38;98477.56;5094089;28;20024;-76
2022/01/31 02:20:02;;;;;;;0.22;0.22;;;;;;;23.34;10.42;98480.28;5094336;28;20024;-75
2022/01/31 02:22:27;;;;;;;0.20;0.20;;;;;;;23.32;10.43;98482.53;5094104;28;20025;-76
2022/01/31 02:24:53;;;;;;;0.30;0.30;;;;;;;23.35;10.42;98486.53;5094086;28;20020;-76
2022/01/31 02:27:31;;;;;;;0.30;0.30;;;;;;;23.39;10.31;98479.34;5093766;28;20028;-77
2022/01/31 02:29:57;;;;;;;0.30;0.30;;;;;;;23.34;10.34;98485.75;5094081;28;20081;-75
2022/01/31 02:32:22;;;;;;;0.30;0.30;;;;;;;23.35;10.33;98481.91;5092721;28;20032;-77
2022/01/31 02:34:49;;;;;;;0.25;0.25;;;;;;;23.33;10.56;98484.13;5094148;28;20461;-75
2022/01/31 02:37:14;;;;;;;0.22;0.22;;;;;;;23.35;10.18;98495.53;5093707;28;20125;-77
2022/01/31 02:39:39;;;;;;;0.20;0.20;;;;;;;23.33;10.38;98492.31;5092677;28;20033;-75
2022/01/31 02:42:05;;;;;;;0.20;0.20;;;;;;;23.36;10.38;98497.13;5092523;28;20432;-77
2022/01/31 02:44:30;;;;;;;0.20;0.20;;;;;;;23.35;10.23;98492.81;5094131;28;20047;-76
2022/01/31 02:46:56;;;;;;;0.20;0.20;;;;;;;23.34;10.33;98496.66;5094228;28;20451;-77
2022/01/31 02:49:25;;;;;;;0.20;0.20;;;;;;;23.33;10.24;98491.50;5095152;28;20043;-76
2022/01/31 02:51:57;;;;;;;0.20;0.20;;;;;;;23.35;10.42;98486.53;5081214;28;20111;-75
2022/01/31 02:54:23;;;;;;;0.20;0.20;;;;;;;23.35;10.35;98492.81;5080366;28;20051;-76
2022/01/31 02:56:49;;;;;;;0.20;0.20;;;;;;;23.29;10.35;98490.56;5080166;28;20475;-77
2022/01/31 02:59:15;;;;;;;0.20;0.20;;;;;;;23.40;10.41;98500.84;5082254;28;20084;-77
2022/01/31 03:01:41;;;;;;;0.20;0.20;;;;;;;23.35;10.40;98498.25;5083239;28;20023;-79
2022/01/31 03:04:07;;;;;;;0.28;0.28;;;;;;;23.37;10.46;98497.91;5078375;28;20414;-78
2022/01/31 03:06:33;;;;;;;0.35;0.30;;;;;;;23.35;10.16;98492.81;5081117;28;20028;-79
2022/01/31 03:08:58;;;;;;;0.30;0.30;;;;;;;23.30;10.17;98483.97;5084250;28;20032;-78
2022/01/31 03:11:23;;;;;;;0.30;0.30;;;;;;;23.36;10.28;98494.41;5085908;28;20040;-78
2022/01/31 03:13:49;;;;;;;0.20;0.20;;;;;;;23.37;10.48;98495.19;5088501;28;20043;-78
2022/01/31 03:16:14;;;;;;;0.20;0.20;;;;;;;23.37;10.41;98496.00;5091913;28;20013;-77
2022/01/31 03:18:40;;;;;;;0.30;0.30;;;;;;;23.34;10.23;98496.66;5092018;28;20528;-78
2022/01/31 03:21:05;;;;;;;0.22;0.22;;;;;;;23.36;10.41;98497.13;5091434;28;20024;-79
2022/01/31 03:23:33;;;;;;;0.20;0.20;;;;;;;23.37;10.13;98500.66;5086705;28;20046;-79
2022/01/31 03:25:58;;;;;;;0.30;0.30;;;;;;;23.33;10.23;98505.94;5088561;28;20028;-78
2022/01/31 03:28:24;;;;;;;0.30;0.30;;;;;;;23.34;10.22;98501.31;5086204;28;20515;-79
2022/01/31 03:30:51;;;;;;;0.20;0.20;;;;;;;23.36;10.02;98502.56;5090393;28;20020;-77
2022/01/31 03:33:16;;;;;;;0.20;0.20;;;;;;;23.38;10.22;98497.59;5090149;28;20058;-77
2022/01/31 03:35:42;;;;;;;0.20;0.20;;;;;;;23.29;10.18;98499.53;5092749;28;20028;-76
2022/01/31 03:38:07;;;;;;;0.30;0.30;;;;;;;23.35;10.23;98503.72;5095882;28;20369;-77
2022/01/31 03:40:33;;;;;;;0.20;0.20;;;;;;;23.35;10.30;98506.44;5097547;28;20009;-77
2022/01/31 03:42:58;;;;;;;0.30;0.30;;;;;;;23.34;10.20;98510.28;5092711;28;20069;-75
2022/01/31 03:45:23;;;;;;;0.20;0.20;;;;;;;23.31;10.21;98502.72;5095485;28;20012;-77
2022/01/31 03:47:49;;;;;;;0.30;0.30;;;;;;;23.33;10.03;98511.38;5092547;28;20042;-77
2022/01/31 03:50:17;;;;;;;0.22;0.22;;;;;;;23.34;10.23;98518.44;5092316;28;20032;-77
2022/01/31 03:52:42;;;;;;;0.28;0.28;;;;;;;23.35;10.22;98517.34;5110797;28;20385;-77
2022/01/31 03:55:09;;;;;;;0.20;0.20;;;;;;;23.34;10.33;98515.72;5114318;28;20024;-76
2022/01/31 03:57:35;;;;;;;0.20;0.20;;;;;;;23.34;10.30;98518.44;5097405;28;20119;-77
2022/01/31 04:00:01;;;;;;;0.22;0.22;;;;;;;23.36;10.29;98513.47;5099531;28;20028;-77
2022/01/31 04:02:27;;;;;;;0.20;0.20;;;;;;;23.37;10.16;98517.81;5097246;28;20024;-74
2022/01/31 04:04:52;;;;;;;0.22;0.22;;;;;;;23.21;10.38;98522.91;5097374;28;20031;-76
2022/01/31 04:07:18;;;;;;;0.30;0.30;;;;;;;23.33;10.20;98519.56;5098309;28;20363;-78
2022/01/31 04:09:43;;;;;;;0.20;0.20;;;;;;;23.42;10.46;98520.41;5099799;28;20027;-76
2022/01/31 04:12:09;;;;;;;1.95;0.30;;;;;;;23.48;10.71;98522.97;5098836;28;20036;-75
2022/01/31 04:14:35;;;;;;;4.22;0.30;;;;;;;23.47;10.27;98511.25;5097084;28;20024;-75
2022/01/31 04:17:00;;;;;;;2.25;0.28;;;;;;;23.52;10.47;98513.03;5098298;28;20024;-78
2022/01/31 04:19:26;;;;;;;0.55;0.40;;;;;;;23.60;10.83;98515.75;5096389;28;20048;-77
2022/01/31 04:21:51;;;;;;;0.30;0.30;;;;;;;23.58;10.32;98511.75;5097553;28;20035;-77
2022/01/31 04:24:23;;;;;;;0.20;0.20;;;;;;;23.59;10.25;98511.44;5107000;28;20024;-78
2022/01/31 04:26:58;;;;;;;0.30;0.30;;;;;;;23.65;10.42;98517.53;5107444;28;20039;-80
2022/01/31 04:29:25;;;;;;;0.30;0.30;;;;;;;23.70;10.23;98514.66;5102387;28;20100;-80
2022/01/31 04:31:54;;;;;;;1.08;0.68;;;;;;;23.73;10.37;98522.19;5096851;28;20039;-79
2022/01/31 04:34:19;;;;;;;1.63;1.10;;;;;;;23.76;10.05;98518.00;5096958;28;20063;-79
2022/01/31 04:36:45;;;;;;;3.20;1.08;;;;;;;23.79;10.19;98523.63;5096491;28;20024;-78
2022/01/31 04:39:16;;;;;;;1.05;0.63;;;;;;;23.80;10.02;98522.50;5096486;28;20370;-78
2022/01/31 04:41:42;;;;;;;1.27;0.88;;;;;;;23.82;10.15;98519.50;5096328;28;20032;-79
2022/01/31 04:44:08;;;;;;;5.45;2.30;;;;;;;23.88;10.20;98520.13;5096505;28;20023;-78
2022/01/31 04:46:33;;;;;;;3.35;2.22;;;;;;;23.90;10.44;98520.59;5096389;28;20028;-78
2022/01/31 04:48:59;;;;;;;2.63;1.30;;;;;;;23.91;10.18;98524.94;5096145;28;20084;-79
2022/01/31 04:51:24;;;;;;;5.00;2.47;;;;;;;23.92;10.05;98510.16;5085933;28;20078;-78
2022/01/31 04:53:50;;;;;;;54.83;21.63;;;;;;;23.99;10.32;98513.19;5075793;28;20039;-79
2022/01/31 04:56:15;;;;;;;28.65;10.80;;;;;;;23.96;10.15;98517.38;5075974;28;20031;-77
2022/01/31 04:58:40;;;;;;;17.63;8.10;;;;;;;24.00;9.97;98518.34;5077164;28;20032;-78
2022/01/31 05:01:06;;;;;;;10.82;4.38;;;;;;;24.03;10.15;98514.19;5075178;28;20028;-77
2022/01/31 05:03:32;;;;;;;6.90;3.33;;;;;;;24.06;9.87;98513.53;5076104;28;20024;-77
2022/01/31 05:05:57;;;;;;;3.97;1.95;;;;;;;24.11;10.31;98524.28;5074200;28;20040;-75
2022/01/31 05:08:26;;;;;;;3.45;1.30;;;;;;;24.08;9.63;98533.13;5075690;28;20052;-76
2022/01/31 05:10:52;;;;;;;3.88;2.00;;;;;;;24.11;10.20;98535.22;5075034;28;20103;-77
2022/01/31 05:13:17;;;;;;;1.98;1.05;;;;;;;24.12;10.07;98536.78;5075702;28;20065;-75
2022/01/31 05:15:43;;;;;;;2.05;1.13;;;;;;;24.12;9.85;98541.47;5075357;28;20078;-76
2022/01/31 05:18:08;;;;;;;2.47;1.23;;;;;;;24.17;10.01;98538.56;5075110;28;20179;-75
2022/01/31 05:20:34;;;;;;;2.72;1.55;;;;;;;24.12;10.37;98536.78;5078311;28;20044;-76
2022/01/31 05:22:59;;;;;;;4.43;2.13;;;;;;;24.16;9.95;98536.94;5074730;28;20030;-74
2022/01/31 05:25:28;;;;;;;3.83;1.58;;;;;;;24.19;9.74;98548.00;5076023;28;20039;-77
2022/01/31 05:27:53;;;;;;;5.53;2.10;;;;;;;24.17;9.92;98544.81;5077174;28;20098;-76
2022/01/31 05:30:21;;;;;;;2.40;1.15;;;;;;;24.23;9.63;98547.38;5075488;28;20470;-76
2022/01/31 05:32:46;;;;;;;2.42;1.30;;;;;;;24.22;9.99;98541.13;5075208;28;20035;-76
2022/01/31 05:35:11;;;;;;;1.02;0.70;;;;;;;24.25;9.67;98550.56;5073942;28;20025;-75
2022/01/31 05:37:37;;;;;;;0.70;0.60;;;;;;;24.21;9.85;98555.88;5073566;28;20025;-75
2022/01/31 05:40:03;;;;;;;0.65;0.60;;;;;;;24.25;9.81;98562.31;5075956;28;20025;-76
2022/01/31 05:42:29;;;;;;;4.45;1.58;;;;;;;24.26;9.78;98571.31;5076357;28;20059;-75
2022/01/31 05:44:54;;;;;;;4.35;1.48;;;;;;;24.34;9.76;98570.50;5077316;28;20021;-77
2022/01/31 05:47:19;;;;;;;1.13;0.63;;;;;;;24.31;10.11;98560.22;5076917;28;20379;-76
2022/01/31 05:49:45;;;;;;;1.88;1.20;;;;;;;24.36;10.10;98568.25;5076638;28;20062;-75
2022/01/31 05:52:10;;;;;;;2.80;1.33;;;;;;;24.38;9.76;98561.31;5090723;28;20123;-75
2022/01/31 05:54:37;;;;;;;1.52;0.80;;;;;;;24.38;9.65;98571.44;5095690;28;20024;-75
2022/01/31 05:57:03;;;;;;;0.95;0.63;;;;;;;24.40;9.92;98569.19;5096761;28;20382;-77
2022/01/31 05:59:28;;;;;;;0.90;0.60;;;;;;;24.40;9.83;98569.19;5097921;28;20126;-78
2022/01/31 06:01:54;;;;;;;0.57;0.55;;;;;;;24.42;9.83;98568.88;5097362;28;20020;-78
2022/01/31 06:04:19;;;;;;;0.50;0.50;;;;;;;24.43;9.75;98567.75;5097553;28;20024;-78
2022/01/31 06:06:45;;;;;;;1.70;1.25;;;;;;;24.45;10.03;98560.03;5097120;28;20401;-77
2022/01/31 06:09:10;;;;;;;0.95;0.88;;;;;;;24.46;9.90;98559.72;5097111;28;20324;-79
2022/01/31 06:11:36;;;;;;;2.28;1.10;;;;;;;24.48;9.61;98553.94;5097812;28;20434;-79
2022/01/31 06:14:02;;;;;;;1.50;0.90;;;;;;;24.51;10.10;98566.94;5097334;28;20020;-78
2022/01/31 06:16:28;;;;;;;0.75;0.70;;;;;;;24.49;9.75;98567.25;5097102;28;20039;-77
2022/01/31 06:18:53;;;;;;;0.75;0.73;;;;;;;24.49;9.71;98571.91;5096116;28;20044;-77
2022/01/31 06:21:19;;;;;;;0.80;0.70;;;;;;;24.51;9.86;98573.19;5094712;28;20024;-78
2022/01/31 06:23:46;;;;;;;0.50;0.50;;;;;;;24.54;10.00;98580.78;5095613;28;20089;-78
2022/01/31 06:26:11;;;;;;;0.45;0.45;;;;;;;24.48;9.84;98571.09;5094592;28;20036;-77
2022/01/31 06:28:36;;;;;;;0.40;0.40;;;;;;;24.50;9.69;98571.56;5094752;28;20019;-78
2022/01/31 06:31:02;;;;;;;0.80;0.50;;;;;;;24.51;9.62;98575.94;5094797;28;20024;-78
2022/01/31 06:33:27;;;;;;;52.30;19.42;;;;;;;24.57;9.68;98573.84;5093763;28;20097;-79
2022/01/31 06:35:54;;;;;;;72.05;24.08;;;;;;;24.54;10.16;98571.75;5093743;28;20024;-77
2022/01/31 06:38:21;;;;;;;84.13;29.63;;;;;;;24.60;9.56;98573.19;5092944;28;20161;-77
2022/01/31 06:40:47;;;;;;;60.15;23.38;;;;;;;24.57;9.99;98579.31;5094147;28;20055;-77
2022/01/31 06:43:12;;;;;;;24.38;9.63;;;;;;;24.63;9.80;98579.94;5094808;28;20050;-79
2022/01/31 06:45:38;;;;;;;21.63;8.95;;;;;;;24.61;10.06;98576.72;5093627;28;20034;-78
2022/01/31 06:48:03;;;;;;;7.90;3.40;;;;;;;24.64;9.79;98574.16;5093348;28;20483;-78
2022/01/31 06:50:29;;;;;;;4.47;1.83;;;;;;;24.66;10.06;98568.34;5093485;28;20489;-78
2022/01/31 06:52:56;;;;;;;3.28;1.73;;;;;;;24.60;10.02;98572.41;5077795;28;20035;-77
2022/01/31 06:55:22;;;;;;;2.50;1.50;;;;;;;24.68;9.75;98569.66;5075596;28;20031;-77
2022/01/31 06:57:48;;;;;;;3.78;1.42;;;;;;;24.76;9.57;98576.19;5075602;28;20021;-76
2022/01/31 07:00:14;;;;;;;4.03;1.38;;;;;;;24.78;9.80;98578.63;5075588;28;20099;-76
2022/01/31 07:02:39;;;;;;;4.75;2.00;;;;;;;24.80;9.89;98582.63;5075046;28;20036;-75
2022/01/31 07:05:05;;;;;;;2.95;1.73;;;;;;;24.85;9.95;98576.19;5075870;28;20028;-74
2022/01/31 07:07:31;;;;;;;3.00;1.65;;;;;;;24.85;10.11;98587.94;5073970;28;20080;-74
2022/01/31 07:09:56;;;;;;;1.88;1.08;;;;;;;24.84;9.77;98583.56;5074379;28;20085;-75
2022/01/31 07:12:31;;;;;;;0.82;0.80;;;;;;;24.88;9.79;98583.72;5073282;28;20024;-74
2022/01/31 07:14:57;;;;;;;1.15;0.90;;;;;;;24.93;9.74;98578.88;5072709;28;20032;-75
2022/01/31 07:17:22;;;;;;;1.35;0.95;;;;;;;24.93;10.05;98586.28;5072710;28;20078;-74
2022/01/31 07:19:47;;;;;;;5.68;2.58;;;;;;;24.98;10.10;98585.31;5073117;28;20040;-74
2022/01/31 07:22:14;;;;;;;4.63;1.90;;;;;;;25.04;10.12;98597.66;5072951;28;20428;-77
2022/01/31 07:27:06;;;;;;;3.25;1.85;;;;;;;24.97;9.91;98584.47;5073118;28;20023;-76
2022/01/31 07:29:31;;;;;;;2.88;1.77;;;;;;;25.01;10.04;98587.38;5073140;28;20090;-74
2022/01/31 07:31:57;;;;;;;1.98;1.40;;;;;;;25.01;10.09;98592.81;5073243;28;20371;-78
2022/01/31 07:34:23;;;;;;;3.00;1.65;;;;;;;24.98;9.91;98598.97;5071994;28;20052;-75
2022/01/31 07:36:48;;;;;;;3.90;2.15;;;;;;;24.90;9.92;98601.38;5076953;28;20072;-74
2022/01/31 07:39:15;;;;;;;2.58;1.58;;;;;;;24.91;9.91;98608.47;5076045;28;20471;-75
2022/01/31 07:41:40;;;;;;;4.18;2.00;;;;;;;24.97;9.68;98597.34;5081282;28;20190;-77
2022/01/31 07:44:06;;;;;;;4.40;1.80;;;;;;;24.99;9.79;98606.03;5079204;28;20025;-76
2022/01/31 07:46:31;;;;;;;1.52;1.20;;;;;;;24.96;9.91;98601.19;5079209;28;20074;-75
2022/01/31 07:48:57;;;;;;;2.75;1.42;;;;;;;24.99;9.75;98598.66;5074288;28;20099;-74
2022/01/31 07:51:23;;;;;;;2.67;1.30;;;;;;;24.98;9.70;98590.78;5076035;28;20025;-75
2022/01/31 07:53:53;;;;;;;2.25;1.25;;;;;;;25.02;9.81;98594.44;5075048;28;20119;-77
2022/01/31 07:56:20;;;;;;;1.73;1.15;;;;;;;25.01;9.81;98593.66;5057099;28;20029;-78
2022/01/31 07:58:45;;;;;;;3.10;1.00;;;;;;;25.03;10.08;98591.38;5075427;28;20074;-73
2022/01/31 08:01:11;;;;;;;2.28;1.50;;;;;;;25.06;9.87;98595.38;5077435;28;20021;-75
2022/01/31 08:03:36;;;;;;;5.20;2.60;;;;;;;25.07;9.77;98592.31;5076899;28;20543;-78
2022/01/31 08:06:02;;;;;;;1.33;0.82;;;;;;;25.09;10.12;98581.06;5076937;28;20027;-77
2022/01/31 08:08:29;;;;;;;1.33;0.90;;;;;;;25.11;10.00;98581.53;5076150;28;20025;-77
2022/01/31 08:10:58;;;;;;;1.05;0.95;;;;;;;25.08;9.96;98588.47;5077269;28;20028;-77
2022/01/31 08:13:25;;;;;;;1.10;1.00;;;;;;;24.93;9.70;98589.81;5076836;28;20024;-76
2022/01/31 08:18:48;;;;;;;1.10;0.88;;;;;;;25.08;9.99;98593.16;4995224;28;20510;-77
2022/01/31 08:21:14;;;;;;;1.38;0.90;;;;;;;25.08;10.41;98590.41;4995598;28;20106;-77
2022/01/31 08:23:39;;;;;;;0.88;0.80;;;;;;;25.08;9.87;98585.75;4995713;28;20366;-79
2022/01/31 08:26:11;;;;;;;1.00;0.80;;;;;;;25.01;10.13;98590.91;5004201;28;20033;-76
2022/01/31 08:28:43;;;;;;;0.93;0.90;;;;;;;25.10;10.32;98588.16;4985587;28;20046;-75
2022/01/31 08:34:03;;;;;;;1.00;0.90;;;;;;;25.15;10.18;98593.44;5004449;28;20041;-76
2022/01/31 08:36:31;;;;;;;0.80;0.80;;;;;;;25.18;10.43;98598.25;4996488;28;20038;-76
2022/01/31 08:38:56;;;;;;;0.85;0.82;;;;;;;25.22;10.44;98604.66;4995592;28;20118;-74
2022/01/31 08:41:23;;;;;;;1.38;1.00;;;;;;;25.17;10.04;98596.63;4997468;28;20057;-74
2022/01/31 08:43:48;;;;;;;1.67;0.80;;;;;;;25.22;10.12;98596.44;4995630;28;20105;-78
2022/01/31 08:46:14;;;;;;;1.17;1.00;;;;;;;25.25;10.51;98598.56;4996669;28;20042;-78
2022/01/31 08:48:39;;;;;;;0.73;0.70;;;;;;;25.25;10.13;98590.38;4995860;28;20069;-76
2022/01/31 08:51:06;;;;;;;0.70;0.70;;;;;;;25.13;10.08;98582.03;4997352;28;20533;-74
2022/01/31 08:53:32;;;;;;;1.27;1.17;;;;;;;25.16;10.20;98595.00;5015806;28;20029;-76
2022/01/31 08:56:06;;;;;;;1.63;0.85;;;;;;;25.22;10.00;98596.44;5065684;28;20467;-77
2022/01/31 08:58:32;;;;;;;1.17;1.08;;;;;;;25.21;10.08;98600.31;5075979;28;20119;-78
2022/01/31 09:01:00;;;;;;;1.20;1.08;;;;;;;25.25;9.98;98597.72;5075735;28;20028;-78
2022/01/31 09:06:07;;;;;;;4.15;1.90;;;;;;;25.23;9.87;98594.50;5075920;28;20108;-78
2022/01/31 09:08:33;;;;;;;3.40;1.75;;;;;;;25.22;9.98;98604.66;5076024;28;20021;-79
2022/01/31 09:10:58;;;;;;;3.67;1.90;;;;;;;25.23;10.04;98598.06;5073340;28;20467;-78
2022/01/31 09:13:24;;;;;;;1.73;1.35;;;;;;;25.24;9.98;98594.19;5076842;28;20020;-78
2022/01/31 09:15:49;;;;;;;2.08;1.40;;;;;;;25.25;9.92;98587.63;5076190;28;20454;-77
2022/01/31 09:18:15;;;;;;;1.60;1.00;;;;;;;25.29;9.93;98595.97;5075368;28;20086;-77
2022/01/31 09:20:40;;;;;;;2.05;1.10;;;;;;;25.23;10.05;98589.88;5075354;28;20025;-78
2022/01/31 09:23:06;;;;;;;1.58;1.25;;;;;;;25.23;9.71;98595.34;5075088;28;20078;-77
2022/01/31 09:25:34;;;;;;;1.85;1.20;;;;;;;25.25;9.93;98587.63;5074566;28;20442;-76
2022/01/31 09:28:00;;;;;;;1.20;1.08;;;;;;;25.21;9.86;98597.56;5075429;28;20466;-78
2022/01/31 09:30:27;;;;;;;6.88;3.35;;;;;;;25.26;9.94;98597.41;5077475;28;20024;-78
2022/01/31 09:32:56;;;;;;;5.15;2.55;;;;;;;25.24;9.77;98596.13;5078852;28;20032;-75
2022/01/31 09:35:21;;;;;;;1.88;1.52;;;;;;;25.25;9.91;98600.44;5076656;28;20035;-75
2022/01/31 09:37:47;;;;;;;1.58;1.10;;;;;;;25.26;10.06;98599.34;5078957;28;20020;-76
2022/01/31 09:40:18;;;;;;;1.55;1.25;;;;;;;25.30;9.75;98606.59;5079739;28;20033;-79
2022/01/31 09:48:43;;;;;;;1.20;1.10;;;;;;;25.31;9.58;98610.09;5038424;28;20039;-78
2022/01/31 09:51:20;;;;;;;1.20;1.10;;;;;;;25.32;9.94;98614.47;5055424;28;20164;-77
2022/01/31 09:53:56;;;;;;;1.73;1.23;;;;;;;25.29;9.54;98606.91;5054553;28;20188;-79
2022/01/31 09:56:26;;;;;;;1.77;1.10;;;;;;;25.26;9.77;98605.63;5054344;28;20541;-79
2022/01/31 09:58:52;;;;;;;1.20;1.10;;;;;;;25.20;9.55;98606.91;5054116;28;20029;-75
2022/01/31 10:01:31;;;;;;;1.10;1.00;;;;;;;25.17;9.65;98596.63;5052091;28;20037;-75
2022/01/31 10:03:58;;;;;;;1.33;0.90;;;;;;;25.20;9.93;98603.34;5051688;28;20033;-74
2022/01/31 10:06:27;;;;;;;1.77;1.15;;;;;;;25.27;10.24;98601.75;5051630;28;20056;-76
2022/01/31 10:09:06;;;;;;;1.73;1.30;;;;;;;25.25;10.10;98601.28;5052095;28;20040;-74
2022/01/31 10:11:41;;;;;;;1.20;1.08;;;;;;;25.28;9.97;98600.66;5051571;28;20029;-74
2022/01/31 10:16:56;;;;;;;1.20;1.10;;;;;;;25.29;9.86;98602.22;5052022;28;20129;-75
2022/01/31 10:19:22;;;;;;;2.67;1.10;;;;;;;25.25;9.61;98601.28;5051745;28;20408;-75
2022/01/31 10:21:59;;;;;;;1.65;1.20;;;;;;;25.25;9.94;98604.03;5066958;28;20042;-74
2022/01/31 10:24:24;;;;;;;1.60;1.27;;;;;;;25.26;9.93;98594.69;5073865;28;20070;-74
2022/01/31 10:26:56;;;;;;;3.00;1.48;;;;;;;25.24;9.94;98599.66;5074300;28;20327;-76
2022/01/31 10:29:22;;;;;;;2.13;1.27;;;;;;;25.32;9.77;98605.44;5073619;28;20062;-76
2022/01/31 10:31:57;;;;;;;1.40;1.30;;;;;;;25.34;9.95;98605.94;5072611;28;20490;-75
2022/01/31 10:34:24;;;;;;;2.78;1.38;;;;;;;25.33;9.72;98599.63;5074356;28;20047;-75
2022/01/31 10:36:50;;;;;;;2.30;1.50;;;;;;;25.35;9.68;98602.03;5073779;28;20474;-75
2022/01/31 10:43:24;;;;;;;1.65;1.48;;;;;;;25.35;9.91;98610.25;5072135;28;20088;-76
2022/01/31 10:53:07;;;;;;;1.67;1.33;;;;;;;25.40;10.08;98621.00;5091823;28;20034;-76
2022/01/31 10:55:32;;;;;;;1.85;1.65;;;;;;;25.33;10.13;98616.03;5095399;28;20028;-76
2022/01/31 10:58:04;;;;;;;2.00;1.42;;;;;;;25.35;10.25;98618.44;5094359;28;20031;-76
2022/01/31 11:00:37;;;;;;;2.13;1.63;;;;;;;25.41;10.23;98630.81;5094753;28;20024;-77
2022/01/31 11:03:31;;;;;;;4.88;1.52;;;;;;;25.40;10.10;98632.72;5093859;28;20028;-75
2022/01/31 11:05:56;;;;;;;1.55;1.30;;;;;;;25.40;9.89;98621.00;5095745;28;20024;-75
2022/01/31 11:08:22;;;;;;;1.95;1.70;;;;;;;25.46;10.13;98622.44;5093754;28;20413;-75
2022/01/31 11:10:47;;;;;;;1.50;1.40;;;;;;;25.43;10.23;98625.81;5092788;28;20025;-75
2022/01/31 11:13:15;;;;;;;2.75;1.55;;;;;;;25.39;9.98;98633.06;5093452;28;20020;-76
2022/01/31 11:15:40;;;;;;;2.35;1.55;;;;;;;25.39;10.28;98630.31;5092869;28;20036;-74
2022/01/31 11:18:06;;;;;;;1.92;1.63;;;;;;;25.46;10.68;98625.16;5093746;28;20051;-73
2022/01/31 11:20:33;;;;;;;2.05;1.40;;;;;;;25.46;9.89;98625.97;5092553;28;20028;-76
2022/01/31 11:22:59;;;;;;;2.35;1.65;;;;;;;25.46;10.03;98633.38;5093754;28;20024;-75
2022/01/31 11:25:28;;;;;;;1.83;1.40;;;;;;;25.46;10.24;98625.16;5075431;28;20024;-76
2022/01/31 11:27:59;;;;;;;1.65;1.55;;;;;;;25.41;10.14;98639.03;5092764;28;20157;-73
2022/01/31 11:30:24;;;;;;;2.33;1.50;;;;;;;25.46;10.01;98645.09;5093750;28;20024;-74
2022/01/31 11:32:50;;;;;;;1.70;1.35;;;;;;;25.45;9.77;98651.69;5092644;28;20524;-75
2022/01/31 11:35:17;;;;;;;3.20;1.65;;;;;;;25.46;10.07;98655.25;5098338;28;20027;-76
2022/01/31 11:37:42;;;;;;;1.77;1.42;;;;;;;25.44;10.15;98649.28;5097977;28;20025;-76
2022/01/31 11:40:09;;;;;;;2.20;1.75;;;;;;;25.46;10.00;98649.78;5100007;28;20024;-75
2022/01/31 11:42:34;;;;;;;2.35;1.50;;;;;;;25.49;10.00;98652.66;5098763;28;20451;-75
2022/01/31 11:45:05;;;;;;;2.25;1.77;;;;;;;25.53;10.19;98652.78;5097783;28;20068;-74
2022/01/31 11:47:31;;;;;;;2.08;1.73;;;;;;;25.54;10.14;98654.38;5098916;28;20501;-75
2022/01/31 11:50:03;;;;;;;2.47;1.80;;;;;;;25.54;9.96;98661.78;5097239;28;20042;-75
2022/01/31 11:52:46;;;;;;;2.45;1.95;;;;;;;25.58;10.06;98658.06;5098402;28;20032;-75
2022/01/31 11:55:14;;;;;;;2.92;2.17;;;;;;;25.61;9.94;98657.44;5097079;28;20028;-75
2022/01/31 11:57:39;;;;;;;3.50;1.80;;;;;;;25.63;10.01;98659.81;5098431;28;20037;-75
2022/01/31 12:00:10;;;;;;;1.98;1.73;;;;;;;25.61;10.13;98673.84;5099328;28;20028;-75
2022/01/31 12:02:45;;;;;;;2.72;1.90;;;;;;;25.66;10.18;98668.19;5099345;28;20032;-74
2022/01/31 12:05:22;;;;;;;2.58;1.90;;;;;;;25.63;10.11;98668.84;5098448;28;20099;-73